Main page
Satellite images 10-day forecastsClimateMarine weather Cyclones Lightning AirportsFAQ Newsletter About
Weather : Europe Africa North America South America Asia Australia-Oceania Others
Languages Contact

Milan, Italy

Malpensa Airport

latitude: 45-37N, longitude: 008-44E, elevation: 234 m


METAR: LIMC 301150Z VRB04KT CAVOK 29/14 Q1021 NOSIG
TAF: LIMC 301100Z 3012/0118 20007KT 9999 SCT050

Time: 14:40 (12:40 UTC)

Current weather observation

The report was made 50 minutes ago, at 11:50 UTC
Wind 4 kt from variable directions
Temperature 29°C
Humidity 40%
Pressure 1021 hPa
Visibility 10 km or more
no clouds below 1500 m and no cumulonimbus

Change units

Forecast

The report was made 1 hour and 40 minutes ago, at 11:00 UTC
Forecast valid from 30 at 12 UTC to 01 at 18 UTC
Wind 7 kt from the South/Southwest
Visibility 10 km or more
Scattered clouds at a height of 5000 ft
The information on this site is subject to a disclaimer
Weather : Europe Africa North America South America Asia Australia-Oceania Others
Satellite images 10-day forecastsClimateMarine weather Cyclones Lightning AirportsFAQ Languages Contact Newsletter About